Time;durP1;ratioP1;P1;durP2;ratioP2;P2;SDS_P1;SDS_P2;PMS_P1;PMS_P2;Temp;Humidity;BMP_temperature;BMP_pressure;BME280_temperature;BME280_humidity;BME280_pressure;Samples;Min_cycle;Max_cycle;Signal;HPM_P1;HPM_P2
2023/01/20 00:02:18;;;;;;;15.95;13.80;;;;;;;1.82;88.50;99558.50;10323871;28;20073;-68
2023/01/20 00:07:19;;;;;;;17.33;14.43;;;;;;;1.89;88.44;99565.13;10334730;28;20248;-68
2023/01/20 00:12:21;;;;;;;18.38;15.25;;;;;;;1.65;88.10;99539.31;10317408;28;20990;-69
2023/01/20 00:17:22;;;;;;;16.00;13.48;;;;;;;1.96;87.20;99592.72;10319484;28;20663;-68
2023/01/20 00:22:23;;;;;;;25.20;15.05;;;;;;;2.01;87.08;99603.84;10315480;28;20057;-68
2023/01/20 00:27:25;;;;;;;17.20;15.38;;;;;;;2.04;87.53;99594.91;10317387;28;20418;-69
2023/01/20 00:32:26;;;;;;;20.30;16.60;;;;;;;2.14;86.53;99608.41;10318218;28;20438;-67
2023/01/20 00:37:27;;;;;;;20.77;17.83;;;;;;;1.58;87.54;99595.69;10318631;28;20342;-67
2023/01/20 00:42:29;;;;;;;20.88;16.60;;;;;;;1.86;88.28;99608.16;10319578;28;20141;-67
2023/01/20 00:47:30;;;;;;;20.42;17.83;;;;;;;2.00;87.28;99615.25;10315396;28;20053;-69
2023/01/20 00:52:32;;;;;;;19.42;15.88;;;;;;;2.27;85.85;99633.88;10314932;28;20271;-69
2023/01/20 00:57:33;;;;;;;19.33;15.82;;;;;;;2.13;85.08;99615.41;10317877;28;20182;-68
2023/01/20 01:02:38;;;;;;;18.92;16.45;;;;;;;2.21;84.46;99638.66;10315006;28;20409;-67
2023/01/20 01:07:41;;;;;;;21.67;16.70;;;;;;;1.96;84.71;99654.88;10345944;28;20053;-70
2023/01/20 01:12:42;;;;;;;21.48;17.40;;;;;;;1.88;86.40;99610.69;10318351;28;20054;-69
2023/01/20 01:17:44;;;;;;;20.35;17.20;;;;;;;2.19;85.29;99651.00;10314540;28;20054;-67
2023/01/20 01:22:45;;;;;;;22.48;17.15;;;;;;;2.09;84.75;99656.75;10320403;28;20069;-68
2023/01/20 01:27:47;;;;;;;21.88;17.45;;;;;;;1.99;84.83;99650.31;10315387;28;20493;-67
2023/01/20 01:32:48;;;;;;;20.48;16.00;;;;;;;1.93;85.66;99667.22;10317951;28;20501;-67
2023/01/20 01:37:50;;;;;;;20.83;16.55;;;;;;;1.88;85.71;99658.78;10313247;28;20331;-66
2023/01/20 01:42:51;;;;;;;18.02;15.75;;;;;;;1.89;85.90;99659.59;10311796;28;20374;-68
2023/01/20 01:48:02;;;;;;;21.00;16.38;;;;;;;1.86;86.13;99680.78;10317332;28;20046;-68
2023/01/20 01:53:04;;;;;;;19.38;17.10;;;;;;;1.75;86.13;99669.06;10316065;28;20047;-66
2023/01/20 01:58:10;;;;;;;21.27;17.90;;;;;;;1.63;86.09;99659.22;10314695;28;20132;-67
2023/01/20 02:03:12;;;;;;;23.42;18.02;;;;;;;1.58;86.62;99667.34;10312406;28;20288;-67
2023/01/20 02:08:13;;;;;;;22.60;17.77;;;;;;;1.81;86.41;99678.41;10330146;28;20046;-67
2023/01/20 02:13:15;;;;;;;22.45;17.27;;;;;;;1.86;85.93;99686.88;10328912;28;20125;-66
2023/01/20 02:18:37;;;;;;;21.25;17.02;;;;;;;1.87;85.56;99691.19;10330048;28;20069;-67
2023/01/20 02:24:11;;;;;;;22.45;19.10;;;;;;;1.90;85.91;99709.41;10312875;28;20037;-67
2023/01/20 02:30:04;;;;;;;25.25;20.50;;;;;;;1.79;85.96;99722.25;10310057;28;20418;-66
2023/01/20 02:35:39;;;;;;;25.67;19.95;;;;;;;1.75;86.56;99716.31;10313956;28;20042;-66
2023/01/20 02:41:02;;;;;;;23.38;19.27;;;;;;;1.82;85.98;99731.72;10310685;28;20141;-68
2023/01/20 02:46:15;;;;;;;25.90;20.60;;;;;;;1.73;86.00;99726.03;10328477;28;20357;-68
2023/01/20 02:51:23;;;;;;;23.02;18.80;;;;;;;1.76;85.90;99731.13;10315673;28;20125;-67
2023/01/20 02:56:28;;;;;;;24.33;18.95;;;;;;;2.04;84.68;99749.81;10309337;28;20053;-67
2023/01/20 03:01:35;;;;;;;25.67;19.25;;;;;;;1.84;85.36;99741.22;10309494;28;20057;-68
2023/01/20 03:06:45;;;;;;;24.13;19.15;;;;;;;1.81;85.81;99746.63;10312832;28;20189;-68
2023/01/20 03:12:16;;;;;;;26.15;20.63;;;;;;;1.79;85.81;99758.13;10312184;28;20045;-68
2023/01/20 03:17:19;;;;;;;25.90;20.20;;;;;;;1.67;85.82;99749.97;10305631;28;20073;-68
2023/01/20 03:22:21;;;;;;;31.70;22.10;;;;;;;1.80;85.40;99780.84;10327856;28;20074;-66
2023/01/20 03:27:23;;;;;;;27.67;20.20;;;;;;;1.68;84.92;99767.44;10321373;28;20073;-67
2023/01/20 03:32:25;;;;;;;28.83;21.73;;;;;;;1.78;85.03;99786.16;10328137;28;20061;-67
2023/01/20 03:37:27;;;;;;;26.77;21.35;;;;;;;1.92;84.18;99793.31;10321931;28;20065;-67
2023/01/20 03:42:51;;;;;;;29.63;22.40;;;;;;;1.65;84.15;99779.84;10320241;28;20127;-66
2023/01/20 03:48:11;;;;;;;30.15;22.52;;;;;;;1.70;84.61;99790.97;10317018;28;20062;-67
2023/01/20 03:53:44;;;;;;;28.80;21.13;;;;;;;1.74;84.84;99795.13;10317745;28;20058;-67
2023/01/20 03:58:50;;;;;;;27.30;22.08;;;;;;;1.57;85.37;99785.47;10322112;28;20069;-67
2023/01/20 04:03:53;;;;;;;26.52;20.30;;;;;;;1.66;85.25;99808.63;10335212;28;20445;-67
2023/01/20 04:09:03;;;;;;;25.85;18.90;;;;;;;1.86;84.62;99818.13;10318429;28;20046;-67
2023/01/20 04:14:07;;;;;;;26.58;19.92;;;;;;;2.02;83.15;99809.44;10318431;28;20194;-68
2023/01/20 04:19:09;;;;;;;26.02;21.17;;;;;;;1.87;83.30;99808.47;10317226;28;20295;-68
2023/01/20 04:24:14;;;;;;;28.98;22.23;;;;;;;1.78;84.08;99825.53;10332281;28;20077;-67
2023/01/20 04:29:15;;;;;;;25.57;20.10;;;;;;;1.59;84.80;99809.84;10317333;28;20065;-67
2023/01/20 04:34:16;;;;;;;26.20;21.25;;;;;;;1.63;85.02;99808.78;10316008;28;20168;-66
2023/01/20 04:39:18;;;;;;;28.42;23.20;;;;;;;1.79;85.15;99831.63;10318332;28;20121;-67
2023/01/20 04:44:19;;;;;;;29.42;21.40;;;;;;;1.78;85.13;99830.78;10317593;28;20151;-67
2023/01/20 04:49:21;;;;;;;31.05;22.10;;;;;;;1.61;85.59;99810.66;10320528;28;20056;-68
2023/01/20 04:54:22;;;;;;;31.63;22.20;;;;;;;1.64;85.78;99822.78;10316318;28;20052;-68
2023/01/20 04:59:23;;;;;;;31.75;23.58;;;;;;;1.63;85.98;99834.19;10315394;28;20412;-68
2023/01/20 05:04:25;;;;;;;31.13;22.75;;;;;;;1.82;85.85;99845.44;10313949;28;20580;-67
2023/01/20 05:09:26;;;;;;;31.85;22.88;;;;;;;1.84;85.20;99845.38;10313768;28;20409;-67
2023/01/20 05:14:28;;;;;;;29.77;22.15;;;;;;;1.75;85.46;99852.75;10319333;28;20049;-68
2023/01/20 05:19:29;;;;;;;30.92;21.35;;;;;;;1.77;85.77;99850.06;10316271;28;20053;-67
2023/01/20 05:24:31;;;;;;;32.20;22.55;;;;;;;1.98;84.53;99871.75;10313240;28;20058;-67
2023/01/20 05:29:32;;;;;;;33.63;24.17;;;;;;;1.76;84.70;99872.84;10315142;28;20413;-67
2023/01/20 05:34:33;;;;;;;31.02;22.55;;;;;;;1.87;84.55;99871.47;10309561;28;20412;-67
2023/01/20 05:39:35;;;;;;;36.50;24.23;;;;;;;1.71;85.30;99867.00;10315914;28;20069;-67
2023/01/20 05:44:36;;;;;;;36.17;23.30;;;;;;;1.70;85.74;99891.53;10314573;28;20528;-67
2023/01/20 05:49:37;;;;;;;32.58;22.55;;;;;;;1.56;85.69;99889.59;10317651;28;20125;-66
2023/01/20 05:54:39;;;;;;;33.83;23.42;;;;;;;1.69;86.17;99902.94;10317064;28;20058;-68
2023/01/20 05:59:41;;;;;;;34.58;22.75;;;;;;;1.57;86.08;99885.19;10327655;28;20050;-66
2023/01/20 06:04:42;;;;;;;37.58;24.10;;;;;;;1.64;86.20;99909.34;10306840;28;20191;-66
2023/01/20 06:09:44;;;;;;;35.53;25.35;;;;;;;1.45;85.92;99893.66;10313429;28;20133;-67
2023/01/20 06:14:45;;;;;;;39.50;24.98;;;;;;;1.61;86.47;99928.72;10304320;28;20065;-67
2023/01/20 06:19:47;;;;;;;36.67;23.45;;;;;;;1.61;86.68;99920.84;10313335;28;20184;-66
2023/01/20 06:24:49;;;;;;;38.55;26.50;;;;;;;1.49;85.72;99895.22;10310839;28;20195;-71
2023/01/20 06:29:51;;;;;;;38.42;23.13;;;;;;;1.58;85.80;99934.13;10323238;28;20061;-68
2023/01/20 06:34:52;;;;;;;36.83;24.20;;;;;;;1.71;85.86;99958.84;10311301;28;20069;-69
2023/01/20 06:39:53;;;;;;;45.20;25.60;;;;;;;1.65;85.73;99956.50;10325670;28;20491;-68
2023/01/20 06:44:55;;;;;;;35.95;25.10;;;;;;;1.60;86.40;99953.25;10305501;28;20057;-68
2023/01/20 06:49:56;;;;;;;34.85;23.52;;;;;;;1.57;85.89;99954.22;10310398;28;20119;-69
2023/01/20 06:54:57;;;;;;;33.00;21.77;;;;;;;1.63;86.11;99979.34;10310659;28;20230;-68
2023/01/20 06:59:59;;;;;;;32.65;22.80;;;;;;;1.57;86.18;99972.59;10310348;28;20050;-71
2023/01/20 07:05:01;;;;;;;34.67;21.80;;;;;;;1.64;85.64;99964.47;10324360;28;20097;-69
2023/01/20 07:10:03;;;;;;;40.38;22.40;;;;;;;1.52;85.20;99971.13;10310676;28;20053;-69
2023/01/20 07:15:04;;;;;;;42.35;25.42;;;;;;;1.57;86.17;99979.63;10310362;28;20716;-69
2023/01/20 07:20:06;;;;;;;38.53;23.75;;;;;;;1.61;86.67;99991.69;10312126;28;20304;-73
2023/01/20 07:25:08;;;;;;;38.15;24.20;;;;;;;1.67;85.95;100008.91;10306723;28;20049;-70
2023/01/20 07:30:10;;;;;;;40.92;24.23;;;;;;;1.54;86.03;100011.25;10311181;28;20668;-67
2023/01/20 07:35:11;;;;;;;37.22;23.50;;;;;;;1.35;86.36;99959.66;10309056;28;20054;-68
2023/01/20 07:40:13;;;;;;;40.67;24.08;;;;;;;1.65;86.27;100014.25;10311852;28;20061;-69
2023/01/20 07:45:15;;;;;;;31.23;23.67;;;;;;;1.68;86.48;100007.97;10308777;28;20061;-69
2023/01/20 07:50:17;;;;;;;37.03;23.58;;;;;;;1.74;85.56;100023.41;10311085;28;20046;-67
2023/01/20 07:55:19;;;;;;;42.40;27.67;;;;;;;1.64;85.02;100028.28;10309661;28;20098;-68
2023/01/20 08:00:21;;;;;;;37.55;27.00;;;;;;;1.72;85.27;100047.13;10315444;28;20318;-69
2023/01/20 08:05:22;;;;;;;40.50;27.20;;;;;;;1.77;84.87;100045.16;10323000;28;20061;-70
2023/01/20 08:10:23;;;;;;;41.83;28.17;;;;;;;1.77;85.20;100032.03;10317028;28;20050;-69
2023/01/20 08:15:25;;;;;;;44.28;28.35;;;;;;;1.93;85.04;100057.53;10320544;28;20140;-69
2023/01/20 08:20:26;;;;;;;40.13;26.90;;;;;;;1.84;84.52;100042.22;10316648;28;20125;-70
2023/01/20 08:25:28;;;;;;;40.35;26.70;;;;;;;1.83;84.67;100044.00;10330688;28;20187;-69
2023/01/20 08:30:29;;;;;;;39.00;25.58;;;;;;;1.91;85.02;100062.00;10323264;28;20157;-68
2023/01/20 08:35:34;;;;;;;37.88;27.05;;;;;;;1.93;84.15;100068.03;10321144;28;20504;-69
2023/01/20 08:40:35;;;;;;;39.33;25.60;;;;;;;1.93;84.40;100060.16;10333656;28;20419;-68
2023/01/20 08:45:37;;;;;;;42.17;30.70;;;;;;;2.10;83.49;100081.22;10317539;28;20058;-69
2023/01/20 08:50:38;;;;;;;43.95;28.27;;;;;;;2.07;84.04;100088.38;10319740;28;20058;-69
2023/01/20 08:55:40;;;;;;;43.33;28.92;;;;;;;1.95;83.96;100068.78;10316553;28;20049;-69
2023/01/20 09:00:41;;;;;;;37.38;25.98;;;;;;;2.00;84.07;100093.06;10318524;28;20069;-69
2023/01/20 09:05:43;;;;;;;42.88;28.55;;;;;;;2.13;84.04;100101.19;10316386;28;20050;-69
2023/01/20 09:10:45;;;;;;;41.47;29.25;;;;;;;2.20;83.04;100099.16;10300336;28;20129;-69
2023/01/20 09:15:51;;;;;;;39.40;28.08;;;;;;;2.16;83.37;100084.47;10317337;28;20545;-69
2023/01/20 09:20:52;;;;;;;41.35;29.38;;;;;;;2.19;83.18;100089.56;10313484;28;20073;-70
2023/01/20 09:25:54;;;;;;;46.03;30.77;;;;;;;2.21;83.16;100087.72;10317800;28;20054;-69
2023/01/20 09:31:04;;;;;;;43.47;29.70;;;;;;;2.38;82.77;100114.00;10313171;28;20054;-69
2023/01/20 09:36:08;;;;;;;43.17;31.33;;;;;;;2.38;82.54;100119.25;10319092;28;20068;-66
2023/01/20 09:47:19;;;;;;;45.72;31.17;;;;;;;2.43;83.32;100124.28;10313312;28;20131;-67
2023/01/20 09:57:58;;;;;;;45.75;30.25;;;;;;;2.41;82.33;100141.91;10309869;28;20049;-66
2023/01/20 10:03:08;;;;;;;38.10;27.55;;;;;;;2.35;82.73;100134.34;10315274;28;20065;-66
2023/01/20 10:08:20;;;;;;;33.88;24.33;;;;;;;2.45;82.74;100133.81;10328092;28;20046;-66
2023/01/20 10:13:46;;;;;;;30.67;23.23;;;;;;;2.64;81.51;100122.38;10314015;28;20620;-66
2023/01/20 10:19:03;;;;;;;33.90;22.35;;;;;;;2.80;79.89;100133.84;10311970;28;20053;-67
2023/01/20 10:24:17;;;;;;;30.42;23.85;;;;;;;3.03;79.25;100144.13;10315068;28;20134;-68
2023/01/20 10:29:40;;;;;;;29.75;23.27;;;;;;;2.98;79.29;100133.84;10315896;28;20060;-69
2023/01/20 10:34:45;;;;;;;30.45;23.42;;;;;;;2.83;78.87;100156.50;10325662;28;20216;-70
2023/01/20 10:39:53;;;;;;;30.83;22.40;;;;;;;3.38;77.71;100136.19;10315248;28;20069;-69
2023/01/20 10:44:55;;;;;;;28.83;20.70;;;;;;;4.09;72.85;100133.25;10321914;28;20073;-70
2023/01/20 10:50:21;;;;;;;27.55;20.38;;;;;;;4.37;71.17;100144.88;10348397;28;20054;-71
2023/01/20 10:55:33;;;;;;;26.38;20.90;;;;;;;5.76;67.64;100149.88;10315573;28;20128;-70
2023/01/20 11:00:35;;;;;;;21.48;18.08;;;;;;;10.75;49.77;100134.28;10315772;28;20214;-68
2023/01/20 11:05:37;;;;;;;18.75;16.60;;;;;;;12.90;42.94;100135.13;10312314;28;20408;-68
2023/01/20 11:10:40;;;;;;;17.58;15.27;;;;;;;12.91;43.31;100141.34;10313426;28;20116;-67
2023/01/20 11:15:47;;;;;;;17.40;14.25;;;;;;;9.55;49.55;100142.09;10310427;28;20057;-68
2023/01/20 11:20:52;;;;;;;17.40;15.70;;;;;;;8.57;52.01;100146.88;10309461;28;20050;-69
2023/01/20 11:25:56;;;;;;;16.85;15.05;;;;;;;6.86;58.21;100147.25;10307926;28;20530;-67
2023/01/20 11:30:58;;;;;;;15.68;14.00;;;;;;;5.78;61.23;100146.22;10304851;28;20107;-67
2023/01/20 11:36:03;;;;;;;16.50;14.32;;;;;;;5.14;64.81;100150.97;10310638;28;20081;-68
2023/01/20 11:41:16;;;;;;;16.67;13.97;;;;;;;4.82;66.38;100155.50;10315210;28;21424;-68
2023/01/20 11:46:24;;;;;;;18.00;16.20;;;;;;;4.58;67.76;100146.28;10320900;28;20041;-68
2023/01/20 11:51:26;;;;;;;15.82;14.02;;;;;;;4.25;68.55;100113.00;10321400;28;20472;-70
2023/01/20 11:56:40;;;;;;;15.40;13.80;;;;;;;4.52;68.33;100162.47;10318627;28;20238;-67
2023/01/20 12:01:59;;;;;;;16.25;14.52;;;;;;;4.74;68.15;100159.44;10324619;28;20042;-68
2023/01/20 12:07:25;;;;;;;14.55;13.07;;;;;;;4.70;67.98;100159.69;10317388;28;20063;-67
2023/01/20 12:12:37;;;;;;;14.98;13.48;;;;;;;4.36;69.59;100156.34;10338413;28;20054;-68
2023/01/20 12:17:47;;;;;;;13.88;12.48;;;;;;;4.30;70.49;100169.88;10321891;28;20046;-68
2023/01/20 12:23:10;;;;;;;14.35;12.98;;;;;;;4.17;70.99;100167.06;10314646;28;20261;-67
2023/01/20 12:28:16;;;;;;;15.30;12.77;;;;;;;3.79;71.65;100152.41;10323132;28;21309;-68
2023/01/20 12:33:37;;;;;;;14.10;12.70;;;;;;;4.04;72.20;100167.75;10320463;28;20073;-68
2023/01/20 12:38:59;;;;;;;15.55;12.30;;;;;;;5.38;67.53;100155.72;10333297;28;20061;-68
2023/01/20 12:44:25;;;;;;;12.30;11.05;;;;;;;7.30;58.67;100169.03;10317470;28;20128;-69
2023/01/20 12:49:26;;;;;;;11.98;10.77;;;;;;;6.01;62.04;100163.28;10317304;28;20126;-69
2023/01/20 12:54:49;;;;;;;11.35;9.75;;;;;;;5.06;63.58;100153.22;10317101;28;20061;-68
2023/01/20 13:00:11;;;;;;;12.98;10.38;;;;;;;4.62;66.00;100169.84;10314841;28;20564;-68
2023/01/20 13:05:41;;;;;;;13.50;10.15;;;;;;;4.30;67.59;100159.34;10306884;28;20181;-69
2023/01/20 13:10:47;;;;;;;13.27;10.23;;;;;;;4.34;67.67;100179.28;10328520;28;20058;-70
2023/01/20 13:16:01;;;;;;;12.07;10.18;;;;;;;4.44;68.04;100183.13;10328028;28;20445;-68
2023/01/20 13:21:03;;;;;;;12.77;10.45;;;;;;;4.02;67.92;100174.00;10312641;28;20485;-68
2023/01/20 13:26:05;;;;;;;11.38;10.05;;;;;;;4.08;67.94;100173.69;10313749;28;20068;-69
2023/01/20 13:31:36;;;;;;;10.35;9.25;;;;;;;4.18;66.86;100188.06;10327837;28;20322;-68
2023/01/20 13:36:37;;;;;;;17.40;14.57;;;;;;;4.05;67.22;100179.13;10308128;28;20045;-68
2023/01/20 13:41:49;;;;;;;13.60;12.20;;;;;;;3.86;67.52;100185.38;10313544;28;20054;-68
2023/01/20 13:46:50;;;;;;;12.30;10.48;;;;;;;3.99;67.55;100171.56;10311171;28;20052;-70
2023/01/20 13:51:52;;;;;;;12.68;10.27;;;;;;;4.20;67.53;100153.72;10313090;28;22482;-70
2023/01/20 13:57:26;;;;;;;11.70;9.77;;;;;;;4.69;66.60;100182.59;10315212;28;20054;-69
2023/01/20 14:02:34;;;;;;;13.77;10.45;;;;;;;5.05;65.69;100186.66;10309129;28;20056;-69
2023/01/20 14:07:35;;;;;;;21.33;19.55;;;;;;;4.79;64.23;100190.84;10312039;28;20066;-70
2023/01/20 14:12:40;;;;;;;12.60;11.32;;;;;;;4.39;66.99;100188.66;10314295;28;20076;-69
2023/01/20 14:17:41;;;;;;;16.35;11.75;;;;;;;4.11;69.28;100170.88;10308279;28;20046;-69
2023/01/20 14:22:43;;;;;;;17.15;12.90;;;;;;;4.20;69.11;100207.28;10308194;28;20108;-69
2023/01/20 14:27:44;;;;;;;15.82;13.77;;;;;;;4.06;70.93;100186.09;10309842;28;20080;-68
2023/01/20 14:32:46;;;;;;;19.85;15.10;;;;;;;4.03;72.34;100194.16;10311597;28;20050;-69
2023/01/20 14:37:50;;;;;;;22.48;18.45;;;;;;;3.95;72.49;100198.97;10312036;28;20529;-68
2023/01/20 14:43:13;;;;;;;23.60;20.13;;;;;;;4.01;73.40;100215.31;10320223;28;20642;-68
2023/01/20 14:48:15;;;;;;;20.67;17.25;;;;;;;3.85;75.54;100212.66;10309012;28;20173;-68
2023/01/20 14:53:34;;;;;;;23.38;17.60;;;;;;;3.89;76.11;100230.00;10306544;28;20486;-69
2023/01/20 14:58:43;;;;;;;21.58;17.70;;;;;;;3.97;76.19;100231.38;10305584;28;20054;-68
2023/01/20 15:03:44;;;;;;;20.25;16.60;;;;;;;3.88;76.04;100220.38;10307561;28;20212;-69
2023/01/20 15:08:48;;;;;;;20.05;16.38;;;;;;;3.81;76.51;100234.78;10309656;28;20128;-70
2023/01/20 15:14:07;;;;;;;19.27;16.50;;;;;;;3.76;77.33;100242.09;10308993;28;20379;-70
2023/01/20 15:19:18;;;;;;;19.58;17.48;;;;;;;3.81;77.84;100244.50;10306275;28;20597;-68
2023/01/20 15:24:30;;;;;;;19.35;17.08;;;;;;;3.80;77.89;100245.41;10323015;28;20401;-68
2023/01/20 15:29:34;;;;;;;23.13;18.67;;;;;;;3.67;78.00;100237.31;10319174;28;20752;-70
2023/01/20 15:34:36;;;;;;;21.65;19.13;;;;;;;3.58;78.57;100230.75;10328292;28;20065;-70
2023/01/20 15:39:37;;;;;;;25.63;20.95;;;;;;;3.65;78.96;100250.56;10324074;28;20057;-68
2023/01/20 15:44:38;;;;;;;21.50;19.30;;;;;;;3.60;79.03;100255.19;10315046;28;20567;-69
2023/01/20 15:49:40;;;;;;;22.60;19.17;;;;;;;3.48;79.62;100255.84;10316777;28;20061;-69
2023/01/20 15:54:41;;;;;;;24.38;18.50;;;;;;;3.44;79.75;100263.03;10311560;28;20084;-70
2023/01/20 15:59:44;;;;;;;22.17;18.85;;;;;;;3.49;79.66;100266.28;10309559;28;20183;-68
2023/01/20 16:04:46;;;;;;;21.88;19.55;;;;;;;3.42;79.67;100264.88;10309270;28;20737;-69
2023/01/20 16:09:48;;;;;;;23.30;19.65;;;;;;;3.50;79.45;100275.88;10312128;28;20132;-69
2023/01/20 16:14:49;;;;;;;23.73;20.48;;;;;;;3.41;79.39;100273.72;10315579;28;20551;-67
2023/01/20 16:19:50;;;;;;;21.88;17.17;;;;;;;3.33;79.51;100270.63;10312398;28;20049;-67
2023/01/20 16:24:52;;;;;;;20.30;18.00;;;;;;;3.34;79.96;100282.84;10304106;28;20057;-67
2023/01/20 16:29:54;;;;;;;21.23;17.67;;;;;;;3.44;79.96;100305.16;10308036;28;20056;-69
2023/01/20 16:34:56;;;;;;;20.25;17.17;;;;;;;3.35;79.87;100293.28;10324789;28;20565;-68
2023/01/20 16:39:57;;;;;;;19.60;17.50;;;;;;;3.44;80.14;100305.16;10312201;28;20053;-67
2023/01/20 16:44:59;;;;;;;23.25;17.67;;;;;;;3.43;79.98;100307.84;10307332;28;20083;-67
2023/01/20 16:50:01;;;;;;;19.77;17.67;;;;;;;3.33;80.61;100299.56;10312072;28;21099;-66
2023/01/20 16:55:03;;;;;;;21.15;17.27;;;;;;;3.43;80.84;100319.22;10309575;28;20391;-66
2023/01/20 17:00:06;;;;;;;25.15;19.58;;;;;;;3.44;81.16;100315.69;10305662;28;20505;-67
2023/01/20 17:05:08;;;;;;;24.20;20.52;;;;;;;3.42;81.11;100316.66;10312803;28;20106;-66
2023/01/20 17:10:10;;;;;;;22.85;19.05;;;;;;;3.46;80.83;100324.34;10318113;28;20042;-67
2023/01/20 17:15:12;;;;;;;22.92;19.80;;;;;;;3.43;81.49;100329.75;10299118;28;20458;-67
2023/01/20 17:20:13;;;;;;;22.27;19.40;;;;;;;3.35;81.09;100342.47;10318188;28;20165;-66
2023/01/20 17:25:16;;;;;;;23.80;19.73;;;;;;;3.16;81.33;100316.19;10304231;28;20365;-68
2023/01/20 17:30:18;;;;;;;21.77;19.48;;;;;;;3.38;81.65;100347.56;10303512;28;20053;-68
2023/01/20 17:35:19;;;;;;;25.77;20.35;;;;;;;3.33;81.27;100344.28;10305490;28;20045;-68
2023/01/20 17:40:21;;;;;;;20.92;18.58;;;;;;;3.43;81.40;100356.06;10314415;28;20104;-69
2023/01/20 17:45:27;;;;;;;22.95;18.38;;;;;;;3.33;80.39;100339.03;10311547;28;20124;-68
2023/01/20 17:50:28;;;;;;;19.63;17.63;;;;;;;3.41;80.43;100357.94;10311290;28;20065;-68
2023/01/20 17:55:29;;;;;;;21.42;17.88;;;;;;;3.46;80.59;100361.19;10315277;28;20176;-69
2023/01/20 18:00:31;;;;;;;22.90;18.58;;;;;;;3.42;79.76;100359.63;10339001;28;20060;-70
2023/01/20 18:05:34;;;;;;;21.80;19.48;;;;;;;3.44;80.25;100373.56;10319052;28;20054;-69
2023/01/20 18:10:36;;;;;;;20.40;16.90;;;;;;;3.38;80.43;100373.00;10318887;28;20159;-67
2023/01/20 18:15:38;;;;;;;26.70;20.63;;;;;;;3.34;80.37;100372.31;10316786;28;20053;-68
2023/01/20 18:20:43;;;;;;;23.27;19.52;;;;;;;3.32;81.07;100389.97;10307480;28;20065;-67
2023/01/20 18:25:44;;;;;;;20.73;17.83;;;;;;;3.34;80.98;100406.53;10315126;28;20054;-67
2023/01/20 18:30:46;;;;;;;17.80;15.88;;;;;;;3.16;81.60;100388.03;10309991;28;20145;-70
2023/01/20 18:35:47;;;;;;;17.48;14.93;;;;;;;3.14;82.59;100410.13;10315844;28;20665;-67
2023/01/20 18:40:48;;;;;;;19.98;15.30;;;;;;;2.99;83.80;100414.31;10321615;28;20045;-67
2023/01/20 18:45:53;;;;;;;16.17;13.90;;;;;;;2.89;84.64;100403.34;10313695;28;20497;-67
2023/01/20 18:50:59;;;;;;;17.75;14.63;;;;;;;2.90;84.90;100404.19;10316528;28;20061;-67
2023/01/20 18:56:03;;;;;;;18.30;15.27;;;;;;;2.93;85.40;100418.06;10310349;28;20054;-66
2023/01/20 19:01:11;;;;;;;17.27;14.75;;;;;;;2.83;85.22;100407.09;10319274;28;20140;-69
2023/01/20 19:06:22;;;;;;;20.25;15.68;;;;;;;2.98;85.08;100431.00;10310192;28;20046;-67
2023/01/20 19:11:27;;;;;;;19.83;14.40;;;;;;;2.97;85.17;100437.19;10315898;28;20138;-68
2023/01/20 19:16:32;;;;;;;16.60;14.90;;;;;;;2.82;85.48;100415.06;10312320;28;20139;-69
2023/01/20 19:21:35;;;;;;;17.23;15.15;;;;;;;2.87;85.52;100420.97;10316497;28;20050;-68
2023/01/20 19:26:38;;;;;;;21.25;15.27;;;;;;;2.83;85.45;100419.41;10315102;28;20164;-69
2023/01/20 19:31:41;;;;;;;17.80;15.73;;;;;;;2.90;86.04;100446.25;10312714;28;20416;-67
2023/01/20 19:36:42;;;;;;;20.10;16.35;;;;;;;2.88;86.18;100442.84;10315407;28;20060;-69
2023/01/20 19:41:44;;;;;;;19.80;16.95;;;;;;;2.94;85.81;100463.63;10313927;28;20053;-65
2023/01/20 19:46:45;;;;;;;16.95;15.30;;;;;;;2.87;85.52;100452.53;10312523;28;20417;-65
2023/01/20 19:51:47;;;;;;;16.05;14.32;;;;;;;2.82;85.79;100460.63;10315258;28;20165;-67
2023/01/20 19:56:48;;;;;;;28.30;24.52;;;;;;;2.85;85.69;100469.28;10314811;28;20547;-66
2023/01/20 20:01:50;;;;;;;14.65;13.18;;;;;;;2.71;86.11;100462.03;10311890;28;20125;-66
2023/01/20 20:06:51;;;;;;;16.50;13.68;;;;;;;2.79;86.37;100476.53;10315029;28;20054;-67
2023/01/20 20:11:53;;;;;;;15.43;13.52;;;;;;;2.77;86.33;100477.53;10321115;28;20084;-65
2023/01/20 20:16:55;;;;;;;14.27;12.75;;;;;;;2.83;86.38;100483.34;10320188;28;20065;-66
2023/01/20 20:21:57;;;;;;;13.10;11.45;;;;;;;2.76;86.42;100476.69;10323029;28;20062;-65
2023/01/20 20:26:59;;;;;;;13.73;12.32;;;;;;;2.90;86.16;100496.22;10342761;28;20649;-65
2023/01/20 20:32:00;;;;;;;12.52;11.23;;;;;;;2.83;86.04;100504.38;10318495;28;20271;-65
2023/01/20 20:37:02;;;;;;;13.05;11.75;;;;;;;2.80;86.11;100503.69;10318717;28;20075;-68
2023/01/20 20:42:03;;;;;;;13.43;12.02;;;;;;;2.82;86.66;100497.44;10320837;28;20065;-66
2023/01/20 20:47:05;;;;;;;14.68;12.90;;;;;;;2.85;86.74;100504.31;10320339;28;20235;-66
2023/01/20 20:52:07;;;;;;;15.07;12.75;;;;;;;2.83;86.49;100519.31;10323061;28;20057;-68
2023/01/20 20:57:08;;;;;;;19.23;16.92;;;;;;;2.86;86.52;100523.59;10320730;28;20696;-66
2023/01/20 21:02:12;;;;;;;15.82;14.23;;;;;;;2.83;86.64;100535.94;10316774;28;20046;-66
2023/01/20 21:07:14;;;;;;;17.00;14.52;;;;;;;2.82;86.62;100534.25;10319675;28;20053;-67
2023/01/20 21:12:15;;;;;;;17.77;16.05;;;;;;;2.82;86.60;100534.25;10324015;28;22322;-65
2023/01/20 21:17:17;;;;;;;18.08;16.27;;;;;;;2.78;86.63;100543.19;10323100;28;20216;-66
2023/01/20 21:22:18;;;;;;;18.98;16.10;;;;;;;2.72;86.85;100537.31;10323969;28;20058;-64
2023/01/20 21:27:20;;;;;;;18.23;16.45;;;;;;;2.71;87.21;100540.91;10316753;28;20269;-68
2023/01/20 21:32:22;;;;;;;18.08;16.27;;;;;;;2.61;87.31;100530.78;10311197;28;20056;-66
2023/01/20 21:37:23;;;;;;;17.33;15.63;;;;;;;2.74;87.25;100554.75;10312170;28;20079;-68
2023/01/20 21:42:25;;;;;;;17.00;15.20;;;;;;;2.71;87.10;100541.75;10315318;28;20551;-67
2023/01/20 21:47:26;;;;;;;16.33;14.65;;;;;;;2.78;86.94;100553.69;10312435;28;20663;-66
2023/01/20 21:52:40;;;;;;;17.80;15.65;;;;;;;2.59;87.15;100542.28;10312763;28;20058;-65
2023/01/20 21:57:41;;;;;;;18.48;15.77;;;;;;;2.67;87.34;100548.03;10314460;28;20136;-67
2023/01/20 22:02:43;;;;;;;17.67;15.77;;;;;;;2.71;86.80;100561.94;10307676;28;20057;-66
2023/01/20 22:07:46;;;;;;;15.88;14.23;;;;;;;2.76;87.05;100576.59;10307902;28;20503;-66
2023/01/20 22:12:48;;;;;;;16.98;15.02;;;;;;;2.78;87.46;100598.41;10311330;28;20060;-69
2023/01/20 22:17:49;;;;;;;15.57;13.38;;;;;;;2.82;87.13;100597.34;10312698;28;20073;-67
2023/01/20 22:22:50;;;;;;;16.63;13.27;;;;;;;2.70;86.53;100579.44;10314690;28;20077;-66
2023/01/20 22:27:52;;;;;;;15.98;12.40;;;;;;;2.82;86.15;100615.75;10328040;28;20050;-66
2023/01/20 22:32:53;;;;;;;14.82;12.50;;;;;;;2.73;86.55;100599.50;10302382;28;20054;-67
2023/01/20 22:37:55;;;;;;;15.48;13.15;;;;;;;2.80;86.46;100616.75;10311649;28;20278;-66
2023/01/20 22:42:56;;;;;;;14.77;13.18;;;;;;;2.75;86.24;100621.34;10309085;28;20687;-69
2023/01/20 22:47:57;;;;;;;18.80;13.25;;;;;;;2.69;86.64;100630.34;10321143;28;20089;-67
2023/01/20 22:52:59;;;;;;;18.00;14.18;;;;;;;2.74;86.98;100646.75;10339990;28;20137;-66
2023/01/20 22:58:00;;;;;;;15.43;13.32;;;;;;;2.71;86.78;100639.00;10316059;28;20058;-69
2023/01/20 23:03:02;;;;;;;15.15;13.55;;;;;;;2.78;86.84;100658.88;10315079;28;20077;-66
2023/01/20 23:08:05;;;;;;;17.27;15.00;;;;;;;2.78;86.42;100658.88;10335553;28;20188;-68
2023/01/20 23:13:06;;;;;;;15.73;13.40;;;;;;;2.74;86.02;100652.03;10319236;28;20055;-66
2023/01/20 23:18:08;;;;;;;19.20;14.68;;;;;;;2.80;85.95;100667.53;10319498;28;20408;-67
2023/01/20 23:23:10;;;;;;;16.50;14.38;;;;;;;2.75;86.27;100674.78;10318705;28;20047;-67